createdAt,value
2022-10-25T00:01:17.890Z,9.70
2022-10-25T00:03:45.816Z,10.30
2022-10-25T00:06:14.361Z,9.30
2022-10-25T00:08:41.621Z,9.90
2022-10-25T00:11:12.089Z,10.10
2022-10-25T00:13:39.286Z,9.50
2022-10-25T00:16:07.299Z,10.00
2022-10-25T00:18:34.758Z,9.40
2022-10-25T00:21:06.918Z,9.80
2022-10-25T00:23:34.272Z,8.60
2022-10-25T00:26:05.182Z,8.70
2022-10-25T00:28:32.212Z,8.10
2022-10-25T00:31:05.040Z,8.60
2022-10-25T00:33:33.708Z,9.40
2022-10-25T00:36:07.205Z,9.30
2022-10-25T00:38:34.663Z,8.70
2022-10-25T00:41:02.253Z,9.40
2022-10-25T00:43:38.100Z,9.20
2022-10-25T00:46:09.012Z,9.10
2022-10-25T00:48:36.887Z,8.30
2022-10-25T00:51:05.295Z,9.10
2022-10-25T00:53:37.307Z,8.50
2022-10-25T00:56:10.210Z,8.40
2022-10-25T00:58:40.314Z,9.60
2022-10-25T01:01:10.628Z,8.50
2022-10-25T01:03:39.783Z,8.00
2022-10-25T01:06:12.349Z,7.30
2022-10-25T01:08:40.086Z,7.90
2022-10-25T01:11:07.253Z,7.90
2022-10-25T01:13:34.592Z,7.40
2022-10-25T01:16:10.872Z,8.00
2022-10-25T01:18:46.375Z,7.40
2022-10-25T01:21:34.989Z,8.10
2022-10-25T01:24:16.110Z,8.30
2022-10-25T01:27:16.918Z,8.30
2022-10-25T01:30:05.010Z,8.90
2022-10-25T01:32:39.807Z,7.40
2022-10-25T01:35:15.253Z,8.20
2022-10-25T01:37:49.919Z,7.50
2022-10-25T01:40:25.171Z,7.30
2022-10-25T01:43:02.394Z,9.10
2022-10-25T01:45:35.204Z,8.50
2022-10-25T01:48:09.355Z,9.10
2022-10-25T01:50:41.167Z,8.80
2022-10-25T01:53:08.757Z,8.60
2022-10-25T01:55:40.660Z,9.30
2022-10-25T01:58:19.534Z,8.60
2022-10-25T02:00:55.236Z,9.80
2022-10-25T02:03:29.265Z,9.10
2022-10-25T02:06:10.538Z,9.00
2022-10-25T02:08:43.045Z,9.10
2022-10-25T02:11:19.209Z,8.40
2022-10-25T02:13:59.449Z,9.20
2022-10-25T02:16:29.469Z,9.60
2022-10-25T02:19:00.130Z,8.70
2022-10-25T02:21:29.941Z,9.70
2022-10-25T02:23:59.399Z,9.50
2022-10-25T02:26:27.629Z,9.20
2022-10-25T02:28:56.147Z,9.00
2022-10-25T02:31:25.270Z,9.20
2022-10-25T02:33:53.082Z,8.80
2022-10-25T02:36:23.505Z,8.10
2022-10-25T02:38:52.561Z,8.50
2022-10-25T02:41:20.526Z,8.40
2022-10-25T02:43:47.716Z,8.50
2022-10-25T02:46:17.164Z,8.90
2022-10-25T02:48:47.395Z,9.40
2022-10-25T02:51:15.342Z,8.90
2022-10-25T02:53:42.656Z,8.60
2022-10-25T02:56:12.092Z,9.50
2022-10-25T02:58:41.707Z,8.60
2022-10-25T03:01:09.931Z,8.80
2022-10-25T03:03:37.465Z,9.00
2022-10-25T03:06:05.325Z,9.10
2022-10-25T03:08:33.017Z,9.30
2022-10-25T03:11:01.068Z,8.70
2022-10-25T03:13:28.154Z,9.00
2022-10-25T03:15:55.491Z,9.20
2022-10-25T03:18:23.197Z,9.30
2022-10-25T03:20:50.455Z,9.50
2022-10-25T03:23:19.420Z,8.90
2022-10-25T03:25:47.955Z,9.50
2022-10-25T03:28:16.905Z,9.60
2022-10-25T03:30:44.668Z,10.20
2022-10-25T03:33:11.695Z,9.40
2022-10-25T03:35:38.727Z,9.40
2022-10-25T03:38:05.919Z,9.70
2022-10-25T03:40:33.334Z,9.10
2022-10-25T03:43:00.496Z,10.30
2022-10-25T03:45:27.852Z,9.20
2022-10-25T03:47:54.943Z,9.50
2022-10-25T03:50:22.024Z,10.10
2022-10-25T03:52:48.966Z,10.10
2022-10-25T03:55:15.964Z,9.90
2022-10-25T03:57:43.126Z,10.40
2022-10-25T04:00:12.436Z,10.40
2022-10-25T04:02:39.618Z,10.30
2022-10-25T04:05:07.159Z,9.70
2022-10-25T04:07:34.442Z,10.00
2022-10-25T04:10:01.530Z,10.80
2022-10-25T04:12:28.780Z,10.90
2022-10-25T04:14:55.769Z,10.10
2022-10-25T04:17:23.130Z,10.40
2022-10-25T04:19:50.233Z,10.30
2022-10-25T04:22:17.299Z,10.50
2022-10-25T04:24:44.325Z,10.30
2022-10-25T04:27:11.336Z,10.90
2022-10-25T04:29:38.391Z,10.80
2022-10-25T04:32:05.658Z,10.60
2022-10-25T04:34:32.946Z,10.10
2022-10-25T04:37:00.004Z,10.70
2022-10-25T04:39:27.199Z,10.00
2022-10-25T04:41:54.162Z,10.10
2022-10-25T04:44:21.247Z,10.80
2022-10-25T04:46:49.011Z,10.40
2022-10-25T04:49:17.322Z,10.20
2022-10-25T04:51:45.067Z,11.40
2022-10-25T04:54:12.838Z,11.10
2022-10-25T04:56:39.967Z,11.10
2022-10-25T04:59:06.979Z,10.80
2022-10-25T05:01:34.237Z,10.80
2022-10-25T05:04:01.445Z,9.70
2022-10-25T05:06:29.298Z,10.40
2022-10-25T05:08:56.964Z,9.70
2022-10-25T05:11:25.867Z,11.00
2022-10-25T05:13:53.696Z,10.00
2022-10-25T05:16:24.830Z,10.30
2022-10-25T05:18:54.545Z,10.70
2022-10-25T05:21:22.400Z,9.70
2022-10-25T05:23:49.619Z,10.00
2022-10-25T05:26:18.732Z,11.20
2022-10-25T05:28:47.705Z,10.30
2022-10-25T05:31:17.004Z,11.20
2022-10-25T05:33:45.376Z,10.80
2022-10-25T05:36:13.157Z,11.40
2022-10-25T05:38:40.440Z,10.70
2022-10-25T05:41:08.856Z,11.00
2022-10-25T05:43:36.261Z,10.70
2022-10-25T05:46:08.760Z,11.60
2022-10-25T05:48:37.364Z,11.80
2022-10-25T05:54:06.152Z,11.30
2022-10-25T05:56:34.484Z,11.90
2022-10-25T05:59:07.830Z,11.20
2022-10-25T06:01:35.741Z,11.80
2022-10-25T06:04:03.257Z,11.70
2022-10-25T06:06:30.448Z,11.30
2022-10-25T06:09:00.099Z,11.50
2022-10-25T06:11:28.363Z,11.50
2022-10-25T06:13:55.629Z,11.80
2022-10-25T06:16:23.481Z,11.50
2022-10-25T06:18:50.759Z,12.10
2022-10-25T06:21:20.512Z,10.60
2022-10-25T06:23:48.945Z,11.70
2022-10-25T06:26:17.881Z,11.10
2022-10-25T06:28:45.039Z,11.20
2022-10-25T06:31:14.707Z,10.40
2022-10-25T06:33:42.426Z,9.30
2022-10-25T06:36:13.190Z,10.10
2022-10-25T06:38:40.594Z,9.30
2022-10-25T06:41:11.207Z,10.00
2022-10-25T06:43:39.044Z,9.60
2022-10-25T06:46:10.465Z,9.20
2022-10-25T06:48:38.204Z,9.30
2022-10-25T06:51:07.245Z,9.70
2022-10-25T06:53:36.306Z,9.40
2022-10-25T06:56:05.498Z,8.90
2022-10-25T06:58:34.790Z,9.50
2022-10-25T07:01:05.712Z,8.80
2022-10-25T07:03:35.268Z,9.10
2022-10-25T07:06:06.858Z,8.60
2022-10-25T07:08:33.991Z,8.30
2022-10-25T07:11:01.037Z,9.30
2022-10-25T07:13:28.446Z,8.10
2022-10-25T07:16:02.043Z,8.70
2022-10-25T07:18:30.339Z,8.30
2022-10-25T07:21:01.646Z,8.00
2022-10-25T07:23:29.201Z,7.30
2022-10-25T07:25:56.236Z,7.80
2022-10-25T07:28:23.290Z,7.50
2022-10-25T07:30:50.958Z,7.20
2022-10-25T07:33:19.805Z,7.40
2022-10-25T07:36:05.897Z,7.20
2022-10-25T07:38:36.829Z,7.00
2022-10-25T07:41:04.004Z,6.90
2022-10-25T07:43:32.211Z,6.50
2022-10-25T07:45:59.456Z,7.30
2022-10-25T07:48:27.015Z,6.30
2022-10-25T07:50:54.661Z,6.70
2022-10-25T07:53:21.838Z,6.30
2022-10-25T07:55:53.961Z,6.50
2022-10-25T07:58:21.695Z,6.70
2022-10-25T08:00:48.827Z,6.90
2022-10-25T08:03:17.931Z,6.40
2022-10-25T08:05:46.289Z,6.90
2022-10-25T08:08:13.465Z,6.00
2022-10-25T08:10:41.386Z,6.60
2022-10-25T08:13:08.616Z,6.40
2022-10-25T08:15:36.443Z,6.60
2022-10-25T08:18:05.062Z,6.60
2022-10-25T08:21:00.199Z,7.20
2022-10-25T08:25:45.052Z,7.10
2022-10-25T08:28:12.133Z,6.60
2022-10-25T08:30:39.264Z,7.20
2022-10-25T08:33:10.619Z,6.20
2022-10-25T08:35:38.680Z,7.00
2022-10-25T08:38:07.095Z,7.50
2022-10-25T08:40:53.152Z,7.50
2022-10-25T08:43:33.478Z,6.80
2022-10-25T08:46:03.884Z,6.90
2022-10-25T08:48:35.396Z,8.10
2022-10-25T08:51:05.989Z,7.90
2022-10-25T08:53:38.832Z,8.40
2022-10-25T08:56:16.143Z,7.80
2022-10-25T08:58:51.300Z,8.30
2022-10-25T09:01:23.851Z,7.40
2022-10-25T09:03:51.026Z,8.10
2022-10-25T09:06:29.062Z,8.60
2022-10-25T09:09:10.201Z,8.50
2022-10-25T09:11:50.388Z,9.00
2022-10-25T09:14:24.339Z,7.70
2022-10-25T09:16:54.188Z,8.20
2022-10-25T09:19:27.359Z,7.50
2022-10-25T09:21:58.866Z,7.40
2022-10-25T09:24:34.889Z,8.50
2022-10-25T09:27:08.493Z,8.60
2022-10-25T09:29:39.258Z,7.60
2022-10-25T09:32:13.349Z,8.10
2022-10-25T09:34:42.026Z,7.80
2022-10-25T09:37:17.595Z,7.60
2022-10-25T09:39:48.255Z,8.40
2022-10-25T09:42:22.961Z,8.10
2022-10-25T09:44:55.955Z,7.80
2022-10-25T09:47:31.211Z,8.30
2022-10-25T09:50:03.307Z,9.30
2022-10-25T09:52:36.736Z,9.40
2022-10-25T09:55:17.299Z,9.00
2022-10-25T09:57:46.588Z,9.50
2022-10-25T10:00:17.756Z,9.90
2022-10-25T10:02:44.941Z,10.80
2022-10-25T10:05:18.326Z,9.90
2022-10-25T10:07:47.487Z,9.80
2022-10-25T10:10:17.751Z,10.20
2022-10-25T10:12:48.382Z,9.40
2022-10-25T10:15:21.717Z,10.20
2022-10-25T10:17:48.972Z,9.70
2022-10-25T10:20:18.624Z,10.30
2022-10-25T10:22:52.852Z,10.80
2022-10-25T10:25:24.864Z,9.60
2022-10-25T10:27:54.645Z,10.20
2022-10-25T10:30:30.244Z,9.60
2022-10-25T10:33:01.252Z,9.50
2022-10-25T10:35:34.933Z,8.50
2022-10-25T10:38:23.973Z,9.30
2022-10-25T10:40:52.181Z,8.10
2022-10-25T10:43:32.077Z,8.40
2022-10-25T10:46:05.239Z,8.10
2022-10-25T10:48:41.904Z,7.40
2022-10-25T10:51:25.229Z,7.60
2022-10-25T10:53:57.845Z,7.70
2022-10-25T10:56:25.859Z,7.50
2022-10-25T10:58:53.874Z,7.60
2022-10-25T11:01:34.203Z,6.90
2022-10-25T11:04:03.439Z,7.50
2022-10-25T11:06:32.687Z,7.00
2022-10-25T11:09:18.250Z,6.70
2022-10-25T11:11:46.544Z,7.10
2022-10-25T11:14:15.703Z,6.90
2022-10-25T11:16:54.015Z,6.50
2022-10-25T11:19:43.195Z,6.40
2022-10-25T11:22:27.434Z,6.80
2022-10-25T11:25:19.822Z,6.70
2022-10-25T11:27:59.805Z,6.40
2022-10-25T11:30:32.976Z,6.60
2022-10-25T11:33:21.697Z,6.40
2022-10-25T11:36:07.347Z,7.20
2022-10-25T11:38:52.588Z,7.30
2022-10-25T11:41:33.302Z,7.70
2022-10-25T11:44:27.034Z,7.40
2022-10-25T11:47:03.214Z,7.90
2022-10-25T11:49:52.374Z,7.70
2022-10-25T11:53:10.331Z,7.60
2022-10-25T11:55:44.185Z,8.30
2022-10-25T11:58:25.717Z,7.70
2022-10-25T12:00:59.780Z,6.90
2022-10-25T12:03:43.712Z,7.40
2022-10-25T12:06:24.968Z,7.70
2022-10-25T12:09:02.912Z,6.50
2022-10-25T12:11:33.184Z,7.30
2022-10-25T12:14:05.484Z,7.50
2022-10-25T12:16:35.584Z,7.50
2022-10-25T12:19:12.601Z,6.90
2022-10-25T12:21:46.297Z,7.10
2022-10-25T12:24:21.003Z,7.10
2022-10-25T12:26:50.153Z,7.50
2022-10-25T12:29:21.595Z,7.20
2022-10-25T12:31:54.474Z,7.20
2022-10-25T12:34:27.514Z,7.30
2022-10-25T12:36:57.208Z,6.80
2022-10-25T12:39:36.939Z,6.00
2022-10-25T12:42:07.786Z,6.30
2022-10-25T12:44:55.179Z,6.50
2022-10-25T12:47:48.112Z,5.80
2022-10-25T12:50:31.075Z,5.90
2022-10-25T12:53:29.152Z,6.20
2022-10-25T12:56:07.521Z,7.30
2022-10-25T12:58:53.666Z,6.30
2022-10-25T13:01:35.707Z,6.00
2022-10-25T13:04:37.977Z,6.50
2022-10-25T13:07:07.764Z,6.70
2022-10-25T13:09:37.429Z,6.40
2022-10-25T13:12:06.954Z,6.30
2022-10-25T13:14:38.516Z,6.80
2022-10-25T13:17:40.413Z,7.20
2022-10-25T13:20:45.193Z,6.20
2022-10-25T13:23:59.510Z,6.20
2022-10-25T13:26:28.450Z,5.80
2022-10-25T13:28:57.120Z,5.80
2022-10-25T13:31:58.029Z,6.40
2022-10-25T13:34:34.450Z,5.40
2022-10-25T13:37:06.235Z,6.00
2022-10-25T13:39:38.246Z,6.30
2022-10-25T13:42:21.205Z,6.30
2022-10-25T13:44:56.286Z,6.30
2022-10-25T13:47:36.816Z,6.70
2022-10-25T13:50:12.397Z,6.20
2022-10-25T13:52:44.561Z,6.20
2022-10-25T13:55:17.462Z,6.00
2022-10-25T13:57:56.712Z,5.80
2022-10-25T14:00:37.248Z,5.00
2022-10-25T14:03:34.739Z,4.90
2022-10-25T14:06:29.121Z,5.80
2022-10-25T14:09:08.887Z,5.10
2022-10-25T14:11:42.161Z,5.80
2022-10-25T14:14:28.047Z,6.20
2022-10-25T14:17:20.351Z,6.20
2022-10-25T14:19:51.330Z,5.90
2022-10-25T14:22:27.840Z,6.40
2022-10-25T14:24:58.554Z,6.50
2022-10-25T14:27:34.699Z,5.80
2022-10-25T14:30:26.252Z,5.70
2022-10-25T14:32:56.003Z,5.80
2022-10-25T14:35:24.787Z,5.30
2022-10-25T14:37:52.329Z,5.40
2022-10-25T14:40:24.168Z,6.10
2022-10-25T14:42:51.624Z,6.00
2022-10-25T14:45:24.513Z,6.50
2022-10-25T14:47:52.282Z,6.30
2022-10-25T14:50:22.400Z,6.50
2022-10-25T14:52:51.591Z,5.70
2022-10-25T14:55:25.548Z,5.90
2022-10-25T14:57:52.840Z,6.10
2022-10-25T15:00:24.844Z,6.70
2022-10-25T15:02:54.839Z,6.30
2022-10-25T15:05:24.540Z,6.90
2022-10-25T15:07:55.721Z,6.10
2022-10-25T15:10:44.504Z,6.90
2022-10-25T15:13:21.932Z,7.30
2022-10-25T15:15:50.913Z,7.20
2022-10-25T15:18:36.863Z,6.90
2022-10-25T15:21:11.196Z,6.90
2022-10-25T15:23:39.627Z,7.40
2022-10-25T15:26:35.813Z,6.80
2022-10-25T15:29:06.293Z,7.20
2022-10-25T15:31:37.094Z,7.50
2022-10-25T15:34:06.494Z,7.20
2022-10-25T15:36:35.605Z,8.40
2022-10-25T15:39:23.402Z,7.40
2022-10-25T15:41:50.588Z,7.60
2022-10-25T15:44:17.693Z,7.90
2022-10-25T15:46:44.947Z,8.80
2022-10-25T15:49:14.776Z,8.50
2022-10-25T15:51:45.741Z,8.30
2022-10-25T15:54:17.759Z,9.20
2022-10-25T15:56:45.282Z,9.00
2022-10-25T15:59:13.640Z,9.00
2022-10-25T16:01:42.386Z,9.20
2022-10-25T16:04:10.968Z,9.80
2022-10-25T16:06:38.261Z,10.60
2022-10-25T16:09:05.723Z,10.70
2022-10-25T16:11:32.884Z,9.90
2022-10-25T16:14:00.352Z,10.80
2022-10-25T16:16:45.111Z,9.70
2022-10-25T16:19:16.459Z,10.90
2022-10-25T16:21:43.531Z,10.70
2022-10-25T16:24:10.793Z,11.50
2022-10-25T16:26:43.036Z,11.40
2022-10-25T16:29:15.358Z,11.50
2022-10-25T16:31:42.514Z,11.00
2022-10-25T16:34:09.601Z,11.30
2022-10-25T16:36:36.867Z,10.90
2022-10-25T16:39:04.379Z,11.60
2022-10-25T16:41:31.978Z,11.50
2022-10-25T16:43:59.386Z,12.00
2022-10-25T16:46:26.942Z,12.90
2022-10-25T16:48:55.877Z,12.50
2022-10-25T16:51:26.058Z,12.70
2022-10-25T16:53:53.150Z,12.40
2022-10-25T16:56:20.256Z,12.00
2022-10-25T16:58:47.289Z,11.90
2022-10-25T17:01:28.788Z,12.20
2022-10-25T17:03:56.602Z,12.70
2022-10-25T17:09:11.466Z,11.00
2022-10-25T17:11:39.266Z,11.30
2022-10-25T17:14:06.583Z,10.70
2022-10-25T17:16:33.779Z,11.70
2022-10-25T17:19:00.842Z,10.60
2022-10-25T17:21:28.766Z,10.90
2022-10-25T17:23:55.816Z,11.30
2022-10-25T17:26:22.921Z,10.90
2022-10-25T17:28:50.111Z,12.20
2022-10-25T17:31:18.238Z,11.90
2022-10-25T17:33:45.851Z,11.60
2022-10-25T17:36:15.048Z,10.50
2022-10-25T17:38:42.908Z,9.50
2022-10-25T17:41:10.796Z,9.20
2022-10-25T17:43:40.230Z,10.40
2022-10-25T17:46:10.200Z,11.30
2022-10-25T17:48:37.292Z,11.50
2022-10-25T17:51:06.882Z,12.40
2022-10-25T17:53:34.327Z,12.50
2022-10-25T17:56:10.667Z,11.80
2022-10-25T17:58:37.648Z,13.50
2022-10-25T18:01:07.774Z,11.50
2022-10-25T18:03:35.147Z,12.30
2022-10-25T18:06:04.158Z,12.10
2022-10-25T18:08:31.665Z,12.30
2022-10-25T18:10:58.960Z,13.90
2022-10-25T18:13:27.240Z,13.00
2022-10-25T18:15:54.874Z,14.40
2022-10-25T18:18:22.981Z,14.40
2022-10-25T18:20:51.634Z,14.70
2022-10-25T18:23:19.195Z,15.50
2022-10-25T18:28:23.773Z,14.40
2022-10-25T18:30:51.466Z,13.40
2022-10-25T18:33:19.208Z,13.00
2022-10-25T18:35:46.301Z,12.40
2022-10-25T18:38:17.094Z,12.40
2022-10-25T18:40:45.201Z,12.00
2022-10-25T18:43:12.378Z,12.40
2022-10-25T18:45:39.692Z,12.80
2022-10-25T18:48:08.687Z,13.20
2022-10-25T18:50:40.432Z,12.10
2022-10-25T18:53:09.867Z,13.00
2022-10-25T18:55:37.233Z,12.20
2022-10-25T18:58:04.401Z,13.00
2022-10-25T19:00:31.641Z,12.50
2022-10-25T19:02:58.865Z,12.70
2022-10-25T19:05:27.819Z,12.90
2022-10-25T19:07:54.856Z,13.00
2022-10-25T19:10:22.157Z,12.80
2022-10-25T19:12:49.355Z,12.70
2022-10-25T19:15:16.557Z,12.70
2022-10-25T19:17:43.655Z,12.10
2022-10-25T19:20:11.574Z,12.40
2022-10-25T19:22:38.846Z,14.90
2022-10-25T19:25:06.698Z,14.30
2022-10-25T19:27:33.726Z,13.50
2022-10-25T19:30:01.124Z,13.00
2022-10-25T19:32:30.628Z,13.30
2022-10-25T19:34:57.798Z,12.70
2022-10-25T19:37:25.029Z,13.50
2022-10-25T19:39:54.381Z,12.80
2022-10-25T19:42:23.912Z,13.60
2022-10-25T19:44:52.027Z,14.70
2022-10-25T19:47:19.527Z,13.20
2022-10-25T19:49:48.134Z,12.40
2022-10-25T19:52:15.227Z,12.90
2022-10-25T19:54:42.224Z,12.30
2022-10-25T19:57:09.384Z,12.20
2022-10-25T19:59:37.198Z,11.80
2022-10-25T20:02:04.601Z,11.70
2022-10-25T20:04:31.750Z,11.90
2022-10-25T20:06:58.952Z,12.10
2022-10-25T20:09:26.049Z,12.50
2022-10-25T20:11:53.755Z,12.90
2022-10-25T20:14:20.803Z,11.90
2022-10-25T20:16:47.853Z,12.20
2022-10-25T20:19:16.600Z,11.80
2022-10-25T20:21:43.742Z,11.60
2022-10-25T20:24:11.767Z,11.60
2022-10-25T20:26:40.876Z,11.70
2022-10-25T20:29:17.027Z,12.10
2022-10-25T20:31:47.926Z,11.90
2022-10-25T20:34:14.940Z,11.90
2022-10-25T20:36:42.398Z,11.70
2022-10-25T20:39:09.550Z,12.20
2022-10-25T20:41:38.205Z,11.60
2022-10-25T20:44:05.903Z,12.80
2022-10-25T20:46:34.173Z,12.80
2022-10-25T20:49:02.388Z,12.90
2022-10-25T20:51:29.627Z,12.30
2022-10-25T20:53:57.098Z,11.50
2022-10-25T20:56:24.689Z,11.90
2022-10-25T20:58:52.617Z,11.60
2022-10-25T21:01:20.059Z,11.70
2022-10-25T21:03:47.233Z,10.80
2022-10-25T21:06:14.690Z,11.00
2022-10-25T21:08:42.097Z,10.00
2022-10-25T21:11:12.108Z,11.20
2022-10-25T21:13:41.652Z,11.10
2022-10-25T21:16:10.833Z,10.70
2022-10-25T21:18:38.489Z,12.20
2022-10-25T21:21:07.171Z,11.00
2022-10-25T21:23:34.461Z,11.00
2022-10-25T21:26:02.511Z,10.60
2022-10-25T21:28:32.369Z,10.90
2022-10-25T21:31:03.294Z,11.20
2022-10-25T21:33:30.467Z,10.20
2022-10-25T21:36:02.629Z,10.80
2022-10-25T21:38:29.651Z,11.40
2022-10-25T21:40:56.722Z,11.00
2022-10-25T21:43:25.485Z,10.70
2022-10-25T21:45:54.519Z,11.30
2022-10-25T21:48:21.588Z,10.70
2022-10-25T21:50:58.572Z,10.60
2022-10-25T21:55:51.032Z,11.30
2022-10-25T21:58:18.572Z,10.10
2022-10-25T22:00:45.737Z,10.60
2022-10-25T22:03:12.792Z,10.40
2022-10-25T22:05:45.165Z,9.90
2022-10-25T22:08:12.326Z,10.10
2022-10-25T22:10:39.289Z,10.50
2022-10-25T22:13:06.463Z,11.30
2022-10-25T22:15:33.479Z,10.20
2022-10-25T22:18:00.523Z,10.70
2022-10-25T22:20:27.754Z,11.80
2022-10-25T22:22:54.785Z,11.20
2022-10-25T22:25:21.855Z,10.50
2022-10-25T22:27:48.902Z,10.50
2022-10-25T22:30:18.385Z,10.80
2022-10-25T22:32:45.605Z,11.30
2022-10-25T22:35:12.889Z,10.40
2022-10-25T22:37:40.053Z,10.30
2022-10-25T22:40:08.401Z,11.20
2022-10-25T22:42:35.899Z,10.70
2022-10-25T22:45:02.949Z,10.80
2022-10-25T22:47:29.991Z,10.80
2022-10-25T22:49:57.223Z,10.40
2022-10-25T22:52:24.281Z,9.80
2022-10-25T22:54:53.864Z,11.00
2022-10-25T22:57:21.472Z,10.90
2022-10-25T22:59:48.445Z,11.40
2022-10-25T23:02:15.584Z,11.90
2022-10-25T23:04:42.680Z,11.10
2022-10-25T23:07:09.852Z,11.60
2022-10-25T23:09:39.960Z,11.10
2022-10-25T23:12:09.072Z,11.20
2022-10-25T23:14:36.247Z,11.30
2022-10-25T23:17:03.250Z,10.80
2022-10-25T23:19:30.243Z,11.00
2022-10-25T23:21:57.318Z,10.90
2022-10-25T23:24:24.344Z,11.30
2022-10-25T23:26:51.381Z,10.90
2022-10-25T23:29:18.685Z,12.30
2022-10-25T23:31:46.254Z,12.20
2022-10-25T23:34:13.397Z,11.70
2022-10-25T23:36:40.913Z,12.30
2022-10-25T23:39:09.227Z,11.70
2022-10-25T23:41:36.224Z,11.90
2022-10-25T23:44:04.140Z,11.40
2022-10-25T23:46:31.319Z,12.00
2022-10-25T23:48:58.666Z,12.50
2022-10-25T23:51:25.657Z,12.60
2022-10-25T23:53:52.801Z,12.10
2022-10-25T23:56:19.875Z,12.50
2022-10-25T23:58:50.583Z,13.50
